sensor_id;sensor_type;location;lat;lon;timestamp;temperature;humidity
7030;DHT22;3556;53.500;10.176;2023-04-06T00:01:39;0.20;99.90
7030;DHT22;3556;53.500;10.176;2023-04-06T00:04:05;0.20;99.90
7030;DHT22;3556;53.500;10.176;2023-04-06T00:06:30;0.20;99.90
7030;DHT22;3556;53.500;10.176;2023-04-06T00:08:57;0.10;99.90
7030;DHT22;3556;53.500;10.176;2023-04-06T00:11:23;0.10;99.90
7030;DHT22;3556;53.500;10.176;2023-04-06T00:13:49;0.00;99.90
7030;DHT22;3556;53.500;10.176;2023-04-06T00:16:14;0.00;99.90
7030;DHT22;3556;53.500;10.176;2023-04-06T00:18:40;0.00;99.90
7030;DHT22;3556;53.500;10.176;2023-04-06T00:21:06;0.00;99.90
7030;DHT22;3556;53.500;10.176;2023-04-06T00:23:32;-0.10;99.90
7030;DHT22;3556;53.500;10.176;2023-04-06T00:25:58;-0.10;99.90
7030;DHT22;3556;53.500;10.176;2023-04-06T00:28:23;-0.10;99.90
7030;DHT22;3556;53.500;10.176;2023-04-06T00:30:52;-0.10;99.90
7030;DHT22;3556;53.500;10.176;2023-04-06T00:33:19;-0.10;99.90
7030;DHT22;3556;53.500;10.176;2023-04-06T00:35:45;-0.20;99.90
7030;DHT22;3556;53.500;10.176;2023-04-06T00:38:12;-0.20;99.90
7030;DHT22;3556;53.500;10.176;2023-04-06T00:40:37;-0.30;99.90
7030;DHT22;3556;53.500;10.176;2023-04-06T00:43:05;-0.30;99.90
7030;DHT22;3556;53.500;10.176;2023-04-06T00:45:31;-0.30;99.90
7030;DHT22;3556;53.500;10.176;2023-04-06T00:47:57;-0.30;99.90
7030;DHT22;3556;53.500;10.176;2023-04-06T00:50:23;-0.30;99.90
7030;DHT22;3556;53.500;10.176;2023-04-06T00:52:49;-0.40;99.90
7030;DHT22;3556;53.500;10.176;2023-04-06T00:55:14;-0.40;99.90
7030;DHT22;3556;53.500;10.176;2023-04-06T00:57:40;-0.40;99.90
7030;DHT22;3556;53.500;10.176;2023-04-06T01:00:06;-0.50;99.90
7030;DHT22;3556;53.500;10.176;2023-04-06T01:02:32;-0.50;99.90
7030;DHT22;3556;53.500;10.176;2023-04-06T01:04:58;-0.50;99.90
7030;DHT22;3556;53.500;10.176;2023-04-06T01:07:23;-0.60;99.90
7030;DHT22;3556;53.500;10.176;2023-04-06T01:09:50;-0.60;99.90
7030;DHT22;3556;53.500;10.176;2023-04-06T01:12:16;-0.60;99.90
7030;DHT22;3556;53.500;10.176;2023-04-06T01:14:42;-0.60;99.90
7030;DHT22;3556;53.500;10.176;2023-04-06T01:17:07;-0.60;99.90
7030;DHT22;3556;53.500;10.176;2023-04-06T01:19:33;-0.70;99.90
7030;DHT22;3556;53.500;10.176;2023-04-06T01:21:59;-0.70;99.90
7030;DHT22;3556;53.500;10.176;2023-04-06T01:24:24;-0.70;99.90
7030;DHT22;3556;53.500;10.176;2023-04-06T01:26:50;-0.70;99.90
7030;DHT22;3556;53.500;10.176;2023-04-06T01:29:16;-0.80;99.90
7030;DHT22;3556;53.500;10.176;2023-04-06T01:31:41;-0.80;99.90
7030;DHT22;3556;53.500;10.176;2023-04-06T01:34:07;-0.80;99.90
7030;DHT22;3556;53.500;10.176;2023-04-06T01:36:33;-0.80;99.90
7030;DHT22;3556;53.500;10.176;2023-04-06T01:38:58;-0.90;99.90
7030;DHT22;3556;53.500;10.176;2023-04-06T01:41:24;-0.90;99.90
7030;DHT22;3556;53.500;10.176;2023-04-06T01:43:50;-0.90;99.90
7030;DHT22;3556;53.500;10.176;2023-04-06T01:46:20;-0.90;99.90
7030;DHT22;3556;53.500;10.176;2023-04-06T01:48:45;-0.90;99.90
7030;DHT22;3556;53.500;10.176;2023-04-06T01:51:11;-1.00;99.90
7030;DHT22;3556;53.500;10.176;2023-04-06T01:53:37;-0.90;99.90
7030;DHT22;3556;53.500;10.176;2023-04-06T01:56:02;-0.90;99.90
7030;DHT22;3556;53.500;10.176;2023-04-06T01:58:28;-1.00;99.90
7030;DHT22;3556;53.500;10.176;2023-04-06T02:00:54;-1.00;99.90
7030;DHT22;3556;53.500;10.176;2023-04-06T02:03:19;-1.10;99.90
7030;DHT22;3556;53.500;10.176;2023-04-06T02:05:45;-1.10;99.90
7030;DHT22;3556;53.500;10.176;2023-04-06T02:08:11;-1.10;99.90
7030;DHT22;3556;53.500;10.176;2023-04-06T02:10:36;-1.10;99.90
7030;DHT22;3556;53.500;10.176;2023-04-06T02:13:02;-1.10;99.90
7030;DHT22;3556;53.500;10.176;2023-04-06T02:15:28;-1.20;99.90
7030;DHT22;3556;53.500;10.176;2023-04-06T02:17:53;-1.10;99.90
7030;DHT22;3556;53.500;10.176;2023-04-06T02:20:19;-1.20;99.90
7030;DHT22;3556;53.500;10.176;2023-04-06T02:22:44;-1.20;99.90
7030;DHT22;3556;53.500;10.176;2023-04-06T02:25:10;-1.20;99.90
7030;DHT22;3556;53.500;10.176;2023-04-06T02:27:37;-1.20;99.90
7030;DHT22;3556;53.500;10.176;2023-04-06T02:30:03;-1.20;99.90
7030;DHT22;3556;53.500;10.176;2023-04-06T02:32:29;-1.30;99.90
7030;DHT22;3556;53.500;10.176;2023-04-06T02:34:55;-1.30;99.90
7030;DHT22;3556;53.500;10.176;2023-04-06T02:37:21;-1.30;99.90
7030;DHT22;3556;53.500;10.176;2023-04-06T02:39:47;-1.30;99.90
7030;DHT22;3556;53.500;10.176;2023-04-06T02:42:13;-1.30;99.90
7030;DHT22;3556;53.500;10.176;2023-04-06T02:44:41;-1.40;99.90
7030;DHT22;3556;53.500;10.176;2023-04-06T02:47:07;-1.40;99.90
7030;DHT22;3556;53.500;10.176;2023-04-06T02:49:32;-1.30;99.90
7030;DHT22;3556;53.500;10.176;2023-04-06T02:51:58;-1.40;99.90
7030;DHT22;3556;53.500;10.176;2023-04-06T02:54:23;-1.40;99.90
7030;DHT22;3556;53.500;10.176;2023-04-06T02:56:49;-1.40;99.90
7030;DHT22;3556;53.500;10.176;2023-04-06T02:59:15;-1.50;99.90
7030;DHT22;3556;53.500;10.176;2023-04-06T03:01:40;-1.50;99.90
7030;DHT22;3556;53.500;10.176;2023-04-06T03:04:06;-1.50;99.90
7030;DHT22;3556;53.500;10.176;2023-04-06T03:06:32;-1.40;99.90
7030;DHT22;3556;53.500;10.176;2023-04-06T03:08:57;-1.40;99.90
7030;DHT22;3556;53.500;10.176;2023-04-06T03:11:23;-1.40;99.90
7030;DHT22;3556;53.500;10.176;2023-04-06T03:13:49;-1.40;99.90
7030;DHT22;3556;53.500;10.176;2023-04-06T03:16:14;-1.40;99.90
7030;DHT22;3556;53.500;10.176;2023-04-06T03:18:40;-1.40;99.90
7030;DHT22;3556;53.500;10.176;2023-04-06T03:21:06;-1.40;99.90
7030;DHT22;3556;53.500;10.176;2023-04-06T03:23:31;-1.30;99.90
7030;DHT22;3556;53.500;10.176;2023-04-06T03:25:57;-1.30;99.90
7030;DHT22;3556;53.500;10.176;2023-04-06T03:28:22;-1.20;99.90
7030;DHT22;3556;53.500;10.176;2023-04-06T03:30:49;-1.20;99.90
7030;DHT22;3556;53.500;10.176;2023-04-06T03:33:14;-1.20;99.90
7030;DHT22;3556;53.500;10.176;2023-04-06T03:35:40;-1.10;99.90
7030;DHT22;3556;53.500;10.176;2023-04-06T03:38:06;-1.10;99.90
7030;DHT22;3556;53.500;10.176;2023-04-06T03:40:32;-1.10;99.90
7030;DHT22;3556;53.500;10.176;2023-04-06T03:42:57;-1.10;99.90
7030;DHT22;3556;53.500;10.176;2023-04-06T03:45:23;-1.10;99.90
7030;DHT22;3556;53.500;10.176;2023-04-06T03:47:49;-1.10;99.90
7030;DHT22;3556;53.500;10.176;2023-04-06T03:50:14;-1.20;99.90
7030;DHT22;3556;53.500;10.176;2023-04-06T03:52:40;-1.20;99.90
7030;DHT22;3556;53.500;10.176;2023-04-06T03:55:07;-1.30;99.90
7030;DHT22;3556;53.500;10.176;2023-04-06T03:57:33;-1.30;99.90
7030;DHT22;3556;53.500;10.176;2023-04-06T03:59:58;-1.40;99.90
7030;DHT22;3556;53.500;10.176;2023-04-06T04:02:24;-1.40;99.90
7030;DHT22;3556;53.500;10.176;2023-04-06T04:04:50;-1.40;99.90
7030;DHT22;3556;53.500;10.176;2023-04-06T04:07:15;-1.40;99.90
7030;DHT22;3556;53.500;10.176;2023-04-06T04:09:41;-1.50;99.90
7030;DHT22;3556;53.500;10.176;2023-04-06T04:12:07;-1.50;99.90
7030;DHT22;3556;53.500;10.176;2023-04-06T04:14:32;-1.50;99.90
7030;DHT22;3556;53.500;10.176;2023-04-06T04:16:58;-1.50;99.90
7030;DHT22;3556;53.500;10.176;2023-04-06T04:19:23;-1.50;99.90
7030;DHT22;3556;53.500;10.176;2023-04-06T04:21:49;-1.50;99.90
7030;DHT22;3556;53.500;10.176;2023-04-06T04:24:15;-1.50;99.90
7030;DHT22;3556;53.500;10.176;2023-04-06T04:26:40;-1.60;99.90
7030;DHT22;3556;53.500;10.176;2023-04-06T04:29:06;-1.60;99.90
7030;DHT22;3556;53.500;10.176;2023-04-06T04:31:32;-1.60;99.90
7030;DHT22;3556;53.500;10.176;2023-04-06T04:33:59;-1.70;99.90
7030;DHT22;3556;53.500;10.176;2023-04-06T04:36:25;-1.70;99.90
7030;DHT22;3556;53.500;10.176;2023-04-06T04:38:52;-1.70;99.90
7030;DHT22;3556;53.500;10.176;2023-04-06T04:41:18;-1.70;99.90
7030;DHT22;3556;53.500;10.176;2023-04-06T04:43:44;-1.70;99.90
7030;DHT22;3556;53.500;10.176;2023-04-06T04:46:10;-1.80;99.90
7030;DHT22;3556;53.500;10.176;2023-04-06T04:48:35;-1.80;99.90
7030;DHT22;3556;53.500;10.176;2023-04-06T04:51:01;-1.80;99.90
7030;DHT22;3556;53.500;10.176;2023-04-06T04:53:27;-1.80;99.90
7030;DHT22;3556;53.500;10.176;2023-04-06T04:55:53;-1.80;99.90
7030;DHT22;3556;53.500;10.176;2023-04-06T04:58:18;-1.80;99.90
7030;DHT22;3556;53.500;10.176;2023-04-06T05:00:45;-1.80;99.90
7030;DHT22;3556;53.500;10.176;2023-04-06T05:03:24;-1.80;99.90
7030;DHT22;3556;53.500;10.176;2023-04-06T05:05:50;-1.80;99.90
7030;DHT22;3556;53.500;10.176;2023-04-06T05:08:16;-1.80;99.90
7030;DHT22;3556;53.500;10.176;2023-04-06T05:10:42;-1.80;99.90
7030;DHT22;3556;53.500;10.176;2023-04-06T05:13:08;-1.80;99.90
7030;DHT22;3556;53.500;10.176;2023-04-06T05:15:34;-1.80;99.90
7030;DHT22;3556;53.500;10.176;2023-04-06T05:18:09;-1.80;99.90
7030;DHT22;3556;53.500;10.176;2023-04-06T05:20:35;-1.80;99.90
7030;DHT22;3556;53.500;10.176;2023-04-06T05:23:01;-1.80;99.90
7030;DHT22;3556;53.500;10.176;2023-04-06T05:25:27;-1.70;99.90
7030;DHT22;3556;53.500;10.176;2023-04-06T05:27:53;-1.70;99.90
7030;DHT22;3556;53.500;10.176;2023-04-06T05:30:19;-1.70;99.90
7030;DHT22;3556;53.500;10.176;2023-04-06T05:32:45;-1.60;99.90
7030;DHT22;3556;53.500;10.176;2023-04-06T05:35:11;-1.60;99.90
7030;DHT22;3556;53.500;10.176;2023-04-06T05:37:38;-1.50;99.90
7030;DHT22;3556;53.500;10.176;2023-04-06T05:40:04;-1.40;99.90
7030;DHT22;3556;53.500;10.176;2023-04-06T05:42:40;-1.40;99.90
7030;DHT22;3556;53.500;10.176;2023-04-06T05:45:07;-1.30;99.90
7030;DHT22;3556;53.500;10.176;2023-04-06T05:47:32;-1.20;99.90
7030;DHT22;3556;53.500;10.176;2023-04-06T05:49:58;-1.10;99.90
7030;DHT22;3556;53.500;10.176;2023-04-06T05:52:24;-1.00;99.90
7030;DHT22;3556;53.500;10.176;2023-04-06T05:54:50;-0.90;99.90
7030;DHT22;3556;53.500;10.176;2023-04-06T05:57:16;-0.70;99.90
7030;DHT22;3556;53.500;10.176;2023-04-06T05:59:44;-0.60;99.90
7030;DHT22;3556;53.500;10.176;2023-04-06T06:02:10;-0.50;99.90
7030;DHT22;3556;53.500;10.176;2023-04-06T06:04:36;-0.40;99.90
7030;DHT22;3556;53.500;10.176;2023-04-06T06:07:01;-0.20;99.90
7030;DHT22;3556;53.500;10.176;2023-04-06T06:09:27;-0.10;99.90
7030;DHT22;3556;53.500;10.176;2023-04-06T06:11:53;0.00;99.90
7030;DHT22;3556;53.500;10.176;2023-04-06T06:14:18;0.20;99.90
7030;DHT22;3556;53.500;10.176;2023-04-06T06:16:45;0.30;99.90
7030;DHT22;3556;53.500;10.176;2023-04-06T06:19:11;0.50;99.90
7030;DHT22;3556;53.500;10.176;2023-04-06T06:21:36;0.70;99.90
7030;DHT22;3556;53.500;10.176;2023-04-06T06:24:02;1.00;99.90
7030;DHT22;3556;53.500;10.176;2023-04-06T06:26:28;1.20;99.90
7030;DHT22;3556;53.500;10.176;2023-04-06T06:28:54;1.40;99.90
7030;DHT22;3556;53.500;10.176;2023-04-06T06:31:20;1.70;99.90
7030;DHT22;3556;53.500;10.176;2023-04-06T06:33:48;1.90;99.90
7030;DHT22;3556;53.500;10.176;2023-04-06T06:36:17;2.20;99.90
7030;DHT22;3556;53.500;10.176;2023-04-06T06:38:42;2.50;99.90
7030;DHT22;3556;53.500;10.176;2023-04-06T06:41:08;2.70;99.90
7030;DHT22;3556;53.500;10.176;2023-04-06T06:43:34;3.00;99.90
7030;DHT22;3556;53.500;10.176;2023-04-06T06:46:00;3.30;99.90
7030;DHT22;3556;53.500;10.176;2023-04-06T06:48:25;3.60;99.90
7030;DHT22;3556;53.500;10.176;2023-04-06T06:50:51;3.80;99.90
7030;DHT22;3556;53.500;10.176;2023-04-06T06:53:17;4.10;99.90
7030;DHT22;3556;53.500;10.176;2023-04-06T06:55:43;4.30;99.90
7030;DHT22;3556;53.500;10.176;2023-04-06T06:58:09;4.60;99.90
7030;DHT22;3556;53.500;10.176;2023-04-06T07:00:35;4.80;99.90
7030;DHT22;3556;53.500;10.176;2023-04-06T07:03:01;4.90;99.90
7030;DHT22;3556;53.500;10.176;2023-04-06T07:05:27;5.10;99.90
7030;DHT22;3556;53.500;10.176;2023-04-06T07:07:53;5.20;99.90
7030;DHT22;3556;53.500;10.176;2023-04-06T07:10:18;5.40;99.90
7030;DHT22;3556;53.500;10.176;2023-04-06T07:12:44;5.60;99.90
7030;DHT22;3556;53.500;10.176;2023-04-06T07:15:10;5.70;99.90
7030;DHT22;3556;53.500;10.176;2023-04-06T07:17:36;6.00;99.90
7030;DHT22;3556;53.500;10.176;2023-04-06T07:20:01;6.10;99.90
7030;DHT22;3556;53.500;10.176;2023-04-06T07:22:27;6.10;99.90
7030;DHT22;3556;53.500;10.176;2023-04-06T07:24:53;6.40;99.90
7030;DHT22;3556;53.500;10.176;2023-04-06T07:27:20;6.60;99.90
7030;DHT22;3556;53.500;10.176;2023-04-06T07:29:45;6.90;99.90
7030;DHT22;3556;53.500;10.176;2023-04-06T07:32:11;7.00;99.90
7030;DHT22;3556;53.500;10.176;2023-04-06T07:34:37;7.20;99.90
7030;DHT22;3556;53.500;10.176;2023-04-06T07:37:02;7.40;99.90
7030;DHT22;3556;53.500;10.176;2023-04-06T07:39:28;7.50;99.90
7030;DHT22;3556;53.500;10.176;2023-04-06T07:41:54;7.70;99.90
7030;DHT22;3556;53.500;10.176;2023-04-06T07:44:19;7.90;99.90
7030;DHT22;3556;53.500;10.176;2023-04-06T07:46:45;8.20;99.90
7030;DHT22;3556;53.500;10.176;2023-04-06T07:49:11;8.40;99.90
7030;DHT22;3556;53.500;10.176;2023-04-06T07:51:38;8.60;99.90
7030;DHT22;3556;53.500;10.176;2023-04-06T07:54:04;8.90;99.90
7030;DHT22;3556;53.500;10.176;2023-04-06T07:56:30;9.00;99.80
7030;DHT22;3556;53.500;10.176;2023-04-06T07:58:55;9.10;96.50
7030;DHT22;3556;53.500;10.176;2023-04-06T08:01:22;9.00;96.40
7030;DHT22;3556;53.500;10.176;2023-04-06T08:03:48;9.20;95.70
7030;DHT22;3556;53.500;10.176;2023-04-06T08:06:14;9.30;96.90
7030;DHT22;3556;53.500;10.176;2023-04-06T08:08:40;9.30;94.80
7030;DHT22;3556;53.500;10.176;2023-04-06T08:11:06;9.40;94.00
7030;DHT22;3556;53.500;10.176;2023-04-06T08:13:32;9.50;92.60
7030;DHT22;3556;53.500;10.176;2023-04-06T08:15:58;9.60;92.90
7030;DHT22;3556;53.500;10.176;2023-04-06T08:18:25;9.70;92.10
7030;DHT22;3556;53.500;10.176;2023-04-06T08:20:51;9.80;91.80
7030;DHT22;3556;53.500;10.176;2023-04-06T08:23:16;9.90;91.70
7030;DHT22;3556;53.500;10.176;2023-04-06T08:25:42;10.10;91.20
7030;DHT22;3556;53.500;10.176;2023-04-06T08:28:08;10.20;87.30
7030;DHT22;3556;53.500;10.176;2023-04-06T08:30:35;10.30;89.90
7030;DHT22;3556;53.500;10.176;2023-04-06T08:33:01;10.50;90.90
7030;DHT22;3556;53.500;10.176;2023-04-06T08:35:27;10.60;85.50
7030;DHT22;3556;53.500;10.176;2023-04-06T08:37:52;10.60;87.10
7030;DHT22;3556;53.500;10.176;2023-04-06T08:40:18;10.80;85.00
7030;DHT22;3556;53.500;10.176;2023-04-06T08:42:53;10.80;81.70
7030;DHT22;3556;53.500;10.176;2023-04-06T08:45:20;10.90;85.20
7030;DHT22;3556;53.500;10.176;2023-04-06T08:47:49;11.10;81.00
7030;DHT22;3556;53.500;10.176;2023-04-06T08:50:16;11.20;82.50
7030;DHT22;3556;53.500;10.176;2023-04-06T08:52:43;11.30;80.20
7030;DHT22;3556;53.500;10.176;2023-04-06T08:55:10;11.30;78.80
7030;DHT22;3556;53.500;10.176;2023-04-06T08:57:36;11.50;78.10
7030;DHT22;3556;53.500;10.176;2023-04-06T09:00:03;11.50;76.50
7030;DHT22;3556;53.500;10.176;2023-04-06T09:02:29;11.60;76.30
7030;DHT22;3556;53.500;10.176;2023-04-06T09:04:56;11.70;75.20
7030;DHT22;3556;53.500;10.176;2023-04-06T09:07:22;11.80;75.20
7030;DHT22;3556;53.500;10.176;2023-04-06T09:09:49;11.90;72.90
7030;DHT22;3556;53.500;10.176;2023-04-06T09:12:30;12.00;71.90
7030;DHT22;3556;53.500;10.176;2023-04-06T09:14:57;12.10;76.20
7030;DHT22;3556;53.500;10.176;2023-04-06T09:17:28;12.10;70.30
7030;DHT22;3556;53.500;10.176;2023-04-06T09:19:54;12.00;70.90
7030;DHT22;3556;53.500;10.176;2023-04-06T09:22:21;12.00;69.60
7030;DHT22;3556;53.500;10.176;2023-04-06T09:24:50;12.10;70.00
7030;DHT22;3556;53.500;10.176;2023-04-06T09:27:16;12.10;74.20
7030;DHT22;3556;53.500;10.176;2023-04-06T09:29:44;12.30;72.30
7030;DHT22;3556;53.500;10.176;2023-04-06T09:32:11;12.10;68.10
7030;DHT22;3556;53.500;10.176;2023-04-06T09:34:40;12.30;69.60
7030;DHT22;3556;53.500;10.176;2023-04-06T09:37:16;12.40;69.30
7030;DHT22;3556;53.500;10.176;2023-04-06T09:39:43;12.50;64.70
7030;DHT22;3556;53.500;10.176;2023-04-06T09:42:09;12.30;66.30
7030;DHT22;3556;53.500;10.176;2023-04-06T09:44:35;12.30;67.20
7030;DHT22;3556;53.500;10.176;2023-04-06T09:47:00;12.50;66.90
7030;DHT22;3556;53.500;10.176;2023-04-06T09:49:30;12.60;65.20
7030;DHT22;3556;53.500;10.176;2023-04-06T09:51:59;12.60;62.50
7030;DHT22;3556;53.500;10.176;2023-04-06T09:54:29;12.70;58.50
7030;DHT22;3556;53.500;10.176;2023-04-06T09:57:07;12.90;59.00
7030;DHT22;3556;53.500;10.176;2023-04-06T10:02:22;13.00;55.00
7030;DHT22;3556;53.500;10.176;2023-04-06T10:04:56;13.20;57.10
7030;DHT22;3556;53.500;10.176;2023-04-06T10:07:25;13.20;53.70
7030;DHT22;3556;53.500;10.176;2023-04-06T10:09:53;13.30;55.00
7030;DHT22;3556;53.500;10.176;2023-04-06T10:12:20;13.50;54.40
7030;DHT22;3556;53.500;10.176;2023-04-06T10:14:46;13.60;51.80
7030;DHT22;3556;53.500;10.176;2023-04-06T10:17:12;13.70;54.70
7030;DHT22;3556;53.500;10.176;2023-04-06T10:19:55;13.60;55.50
7030;DHT22;3556;53.500;10.176;2023-04-06T10:22:57;14.00;55.90
7030;DHT22;3556;53.500;10.176;2023-04-06T10:25:29;14.20;53.30
7030;DHT22;3556;53.500;10.176;2023-04-06T10:28:09;14.10;49.80
7030;DHT22;3556;53.500;10.176;2023-04-06T10:30:42;14.20;52.90
7030;DHT22;3556;53.500;10.176;2023-04-06T10:33:19;14.50;56.00
7030;DHT22;3556;53.500;10.176;2023-04-06T10:35:45;14.60;50.60
7030;DHT22;3556;53.500;10.176;2023-04-06T10:38:11;14.60;53.90
7030;DHT22;3556;53.500;10.176;2023-04-06T10:40:40;14.80;49.90
7030;DHT22;3556;53.500;10.176;2023-04-06T10:43:13;14.70;48.90
7030;DHT22;3556;53.500;10.176;2023-04-06T10:45:40;14.80;50.40
7030;DHT22;3556;53.500;10.176;2023-04-06T10:48:17;14.80;48.70
7030;DHT22;3556;53.500;10.176;2023-04-06T10:50:50;14.70;48.10
7030;DHT22;3556;53.500;10.176;2023-04-06T10:53:25;15.00;50.90
7030;DHT22;3556;53.500;10.176;2023-04-06T10:55:54;15.00;49.10
7030;DHT22;3556;53.500;10.176;2023-04-06T10:58:20;15.20;48.40
7030;DHT22;3556;53.500;10.176;2023-04-06T11:00:49;15.40;48.70
7030;DHT22;3556;53.500;10.176;2023-04-06T11:03:16;15.40;46.00
7030;DHT22;3556;53.500;10.176;2023-04-06T11:05:48;15.30;47.30
7030;DHT22;3556;53.500;10.176;2023-04-06T11:11:03;15.70;49.20
7030;DHT22;3556;53.500;10.176;2023-04-06T11:13:44;15.70;46.90
7030;DHT22;3556;53.500;10.176;2023-04-06T11:16:20;15.70;46.30
7030;DHT22;3556;53.500;10.176;2023-04-06T11:18:54;16.00;49.30
7030;DHT22;3556;53.500;10.176;2023-04-06T11:26:40;16.40;47.50
7030;DHT22;3556;53.500;10.176;2023-04-06T11:29:06;16.50;48.30
7030;DHT22;3556;53.500;10.176;2023-04-06T11:31:38;16.80;48.10
7030;DHT22;3556;53.500;10.176;2023-04-06T11:34:12;16.80;44.90
7030;DHT22;3556;53.500;10.176;2023-04-06T11:36:41;16.90;45.10
7030;DHT22;3556;53.500;10.176;2023-04-06T11:39:07;16.90;44.20
7030;DHT22;3556;53.500;10.176;2023-04-06T11:41:33;16.80;44.40
7030;DHT22;3556;53.500;10.176;2023-04-06T11:44:01;17.00;47.70
7030;DHT22;3556;53.500;10.176;2023-04-06T11:46:28;17.40;44.50
7030;DHT22;3556;53.500;10.176;2023-04-06T11:48:58;17.80;47.00
7030;DHT22;3556;53.500;10.176;2023-04-06T11:51:24;18.10;43.80
7030;DHT22;3556;53.500;10.176;2023-04-06T11:53:49;18.30;44.50
7030;DHT22;3556;53.500;10.176;2023-04-06T11:56:29;18.40;42.60
7030;DHT22;3556;53.500;10.176;2023-04-06T11:58:56;18.40;41.50
7030;DHT22;3556;53.500;10.176;2023-04-06T12:01:23;18.30;43.20
7030;DHT22;3556;53.500;10.176;2023-04-06T12:03:50;18.40;40.90
7030;DHT22;3556;53.500;10.176;2023-04-06T12:06:16;18.10;40.40
7030;DHT22;3556;53.500;10.176;2023-04-06T12:08:42;18.50;44.00
7030;DHT22;3556;53.500;10.176;2023-04-06T12:11:08;18.90;41.50
7030;DHT22;3556;53.500;10.176;2023-04-06T12:13:33;19.20;40.20
7030;DHT22;3556;53.500;10.176;2023-04-06T12:15:59;19.40;42.80
7030;DHT22;3556;53.500;10.176;2023-04-06T12:18:25;19.70;42.00
7030;DHT22;3556;53.500;10.176;2023-04-06T12:20:51;19.90;40.70
7030;DHT22;3556;53.500;10.176;2023-04-06T12:23:18;19.80;36.50
7030;DHT22;3556;53.500;10.176;2023-04-06T12:25:44;19.50;37.10
7030;DHT22;3556;53.500;10.176;2023-04-06T12:28:10;19.10;37.80
7030;DHT22;3556;53.500;10.176;2023-04-06T12:30:36;19.00;39.40
7030;DHT22;3556;53.500;10.176;2023-04-06T12:33:02;19.20;40.60
7030;DHT22;3556;53.500;10.176;2023-04-06T12:35:28;19.40;41.60
7030;DHT22;3556;53.500;10.176;2023-04-06T12:37:53;19.70;39.10
7030;DHT22;3556;53.500;10.176;2023-04-06T12:40:19;19.80;38.10
7030;DHT22;3556;53.500;10.176;2023-04-06T12:42:45;20.20;39.80
7030;DHT22;3556;53.500;10.176;2023-04-06T12:45:12;20.00;37.30
7030;DHT22;3556;53.500;10.176;2023-04-06T12:47:37;20.00;37.70
7030;DHT22;3556;53.500;10.176;2023-04-06T12:50:04;20.20;39.80
7030;DHT22;3556;53.500;10.176;2023-04-06T12:52:31;20.20;35.20
7030;DHT22;3556;53.500;10.176;2023-04-06T12:54:57;20.20;38.20
7030;DHT22;3556;53.500;10.176;2023-04-06T12:57:25;20.30;39.40
7030;DHT22;3556;53.500;10.176;2023-04-06T12:59:51;20.40;39.80
7030;DHT22;3556;53.500;10.176;2023-04-06T13:02:18;20.90;36.90
7030;DHT22;3556;53.500;10.176;2023-04-06T13:04:45;21.30;41.90
7030;DHT22;3556;53.500;10.176;2023-04-06T13:07:11;21.60;35.30
7030;DHT22;3556;53.500;10.176;2023-04-06T13:09:37;21.60;37.90
7030;DHT22;3556;53.500;10.176;2023-04-06T13:12:02;21.40;35.20
7030;DHT22;3556;53.500;10.176;2023-04-06T13:14:28;21.50;37.80
7030;DHT22;3556;53.500;10.176;2023-04-06T13:16:54;21.30;35.40
7030;DHT22;3556;53.500;10.176;2023-04-06T13:19:20;21.20;37.80
7030;DHT22;3556;53.500;10.176;2023-04-06T13:21:45;21.30;37.30
7030;DHT22;3556;53.500;10.176;2023-04-06T13:24:11;21.30;35.00
7030;DHT22;3556;53.500;10.176;2023-04-06T13:26:37;21.20;33.20
7030;DHT22;3556;53.500;10.176;2023-04-06T13:29:02;21.20;35.90
7030;DHT22;3556;53.500;10.176;2023-04-06T13:31:29;21.40;35.10
7030;DHT22;3556;53.500;10.176;2023-04-06T13:33:54;21.80;35.60
7030;DHT22;3556;53.500;10.176;2023-04-06T13:36:20;22.10;36.00
7030;DHT22;3556;53.500;10.176;2023-04-06T13:38:46;22.40;34.20
7030;DHT22;3556;53.500;10.176;2023-04-06T13:41:22;22.50;37.70
7030;DHT22;3556;53.500;10.176;2023-04-06T13:43:49;22.90;35.00
7030;DHT22;3556;53.500;10.176;2023-04-06T13:46:15;22.60;33.00
7030;DHT22;3556;53.500;10.176;2023-04-06T13:48:42;22.80;33.90
7030;DHT22;3556;53.500;10.176;2023-04-06T13:51:12;22.70;33.70
7030;DHT22;3556;53.500;10.176;2023-04-06T13:53:38;22.70;35.50
7030;DHT22;3556;53.500;10.176;2023-04-06T13:56:04;22.80;33.10
7030;DHT22;3556;53.500;10.176;2023-04-06T13:58:30;23.00;33.80
7030;DHT22;3556;53.500;10.176;2023-04-06T14:01:07;23.00;34.20
7030;DHT22;3556;53.500;10.176;2023-04-06T14:03:35;23.30;33.10
7030;DHT22;3556;53.500;10.176;2023-04-06T14:06:01;23.30;33.10
7030;DHT22;3556;53.500;10.176;2023-04-06T14:08:27;23.20;34.80
7030;DHT22;3556;53.500;10.176;2023-04-06T14:10:52;23.20;33.40
7030;DHT22;3556;53.500;10.176;2023-04-06T14:13:19;23.60;32.90
7030;DHT22;3556;53.500;10.176;2023-04-06T14:15:45;23.70;31.60
7030;DHT22;3556;53.500;10.176;2023-04-06T14:18:10;23.00;31.30
7030;DHT22;3556;53.500;10.176;2023-04-06T14:20:36;23.00;32.30
7030;DHT22;3556;53.500;10.176;2023-04-06T14:23:03;22.90;32.80
7030;DHT22;3556;53.500;10.176;2023-04-06T14:25:28;22.70;31.40
7030;DHT22;3556;53.500;10.176;2023-04-06T14:27:56;22.70;32.70
7030;DHT22;3556;53.500;10.176;2023-04-06T14:30:22;22.70;32.70
7030;DHT22;3556;53.500;10.176;2023-04-06T14:32:48;23.00;32.90
7030;DHT22;3556;53.500;10.176;2023-04-06T14:35:13;22.60;31.20
7030;DHT22;3556;53.500;10.176;2023-04-06T14:37:39;22.30;32.40
7030;DHT22;3556;53.500;10.176;2023-04-06T14:40:05;22.40;34.20
7030;DHT22;3556;53.500;10.176;2023-04-06T14:42:31;22.70;32.30
7030;DHT22;3556;53.500;10.176;2023-04-06T14:44:57;22.90;34.00
7030;DHT22;3556;53.500;10.176;2023-04-06T14:47:23;23.00;30.80
7030;DHT22;3556;53.500;10.176;2023-04-06T14:49:52;22.80;31.60
7030;DHT22;3556;53.500;10.176;2023-04-06T14:52:18;22.60;31.30
7030;DHT22;3556;53.500;10.176;2023-04-06T14:54:44;22.70;32.90
7030;DHT22;3556;53.500;10.176;2023-04-06T14:57:10;22.80;31.50
7030;DHT22;3556;53.500;10.176;2023-04-06T14:59:36;22.90;32.00
7030;DHT22;3556;53.500;10.176;2023-04-06T15:02:02;22.80;30.40
7030;DHT22;3556;53.500;10.176;2023-04-06T15:04:29;22.60;32.50
7030;DHT22;3556;53.500;10.176;2023-04-06T15:06:55;22.50;31.40
7030;DHT22;3556;53.500;10.176;2023-04-06T15:09:20;22.50;31.40
7030;DHT22;3556;53.500;10.176;2023-04-06T15:11:46;22.70;32.00
7030;DHT22;3556;53.500;10.176;2023-04-06T15:14:12;21.90;30.80
7030;DHT22;3556;53.500;10.176;2023-04-06T15:16:37;21.90;33.00
7030;DHT22;3556;53.500;10.176;2023-04-06T15:19:03;22.10;31.30
7030;DHT22;3556;53.500;10.176;2023-04-06T15:21:28;22.00;30.80
7030;DHT22;3556;53.500;10.176;2023-04-06T15:23:54;21.60;31.20
7030;DHT22;3556;53.500;10.176;2023-04-06T15:26:21;21.40;31.30
7030;DHT22;3556;53.500;10.176;2023-04-06T15:28:46;21.20;32.30
7030;DHT22;3556;53.500;10.176;2023-04-06T15:31:16;21.20;31.30
7030;DHT22;3556;53.500;10.176;2023-04-06T15:33:41;21.20;31.20
7030;DHT22;3556;53.500;10.176;2023-04-06T15:36:26;20.80;32.20
7030;DHT22;3556;53.500;10.176;2023-04-06T15:38:54;20.60;31.70
7030;DHT22;3556;53.500;10.176;2023-04-06T15:41:21;20.40;32.40
7030;DHT22;3556;53.500;10.176;2023-04-06T15:43:47;20.20;33.10
7030;DHT22;3556;53.500;10.176;2023-04-06T15:46:13;20.30;33.80
7030;DHT22;3556;53.500;10.176;2023-04-06T15:48:39;20.00;34.10
7030;DHT22;3556;53.500;10.176;2023-04-06T15:51:05;19.40;33.50
7030;DHT22;3556;53.500;10.176;2023-04-06T15:53:31;18.90;34.10
7030;DHT22;3556;53.500;10.176;2023-04-06T15:56:04;18.20;34.60
7030;DHT22;3556;53.500;10.176;2023-04-06T15:58:31;17.40;35.70